Time;durP1;ratioP1;P1;durP2;ratioP2;P2;SDS_P1;SDS_P2;PMS_P1;PMS_P2;Temp;Humidity;BMP_temperature;BMP_pressure;BME280_temperature;BME280_humidity;BME280_pressure;Samples;Min_cycle;Max_cycle;Signal;HPM_P1;HPM_P2
2023/10/11 00:00:39;;;;;;;8.67;4.50;;;13.20;99.90;;;;;;5100062;28;20616;-76
2023/10/11 00:03:32;;;;;;;9.03;5.43;;;13.10;99.90;;;;;;5117324;28;20201;-78
2023/10/11 00:05:56;;;;;;;9.90;5.23;;;13.00;99.90;;;;;;5117342;28;20185;-76
2023/10/11 00:08:33;;;;;;;8.33;4.90;;;13.00;99.90;;;;;;5116915;28;20640;-76
2023/10/11 00:11:00;;;;;;;6.07;4.90;;;13.20;99.90;;;;;;5097605;28;20218;-77
2023/10/11 00:13:35;;;;;;;7.13;5.03;;;13.10;99.90;;;;;;5116937;28;20177;-77
2023/10/11 00:16:09;;;;;;;10.17;5.03;;;13.10;99.90;;;;;;5097908;28;20181;-78
2023/10/11 00:18:41;;;;;;;6.53;5.03;;;13.20;99.90;;;;;;5116601;28;20236;-78
2023/10/11 00:21:11;;;;;;;7.07;5.43;;;13.00;99.90;;;;;;5116219;28;20681;-76
2023/10/11 00:23:41;;;;;;;7.43;5.33;;;12.90;99.90;;;;;;5124639;28;20217;-76
2023/10/11 00:26:07;;;;;;;6.60;4.47;;;12.90;99.90;;;;;;5098807;28;20178;-76
2023/10/11 00:28:34;;;;;;;6.97;4.63;;;12.80;99.90;;;;;;5116352;28;20177;-77
2023/10/11 00:31:01;;;;;;;8.20;5.03;;;12.80;99.90;;;;;;5116438;28;20209;-79
2023/10/11 00:33:29;;;;;;;7.10;5.20;;;12.80;99.90;;;;;;5118373;28;20170;-77
2023/10/11 00:35:55;;;;;;;5.50;4.97;;;12.80;99.90;;;;;;5116978;28;20238;-76
2023/10/11 00:38:31;;;;;;;7.03;5.20;;;12.40;99.90;;;;;;5117557;28;20652;-77
2023/10/11 00:41:18;;;;;;;5.43;4.50;;;12.80;99.90;;;;;;5115908;28;20230;-78
2023/10/11 00:43:52;;;;;;;6.50;5.17;;;12.70;99.90;;;;;;5115888;28;20173;-79
2023/10/11 00:46:22;;;;;;;8.07;4.97;;;12.80;99.90;;;;;;5115957;28;20165;-76
2023/10/11 00:48:54;;;;;;;7.50;4.77;;;12.70;99.90;;;;;;5116185;28;20228;-77
2023/10/11 00:51:23;;;;;;;13.37;5.43;;;12.80;99.90;;;;;;5115476;28;20280;-76
2023/10/11 00:53:50;;;;;;;7.27;5.27;;;12.80;99.90;;;;;;5115547;28;20644;-77
2023/10/11 00:56:20;;;;;;;7.87;5.23;;;13.00;99.90;;;;;;5115193;28;20200;-77
2023/10/11 00:58:50;;;;;;;7.27;5.07;;;12.80;99.90;;;;;;5129090;28;20153;-78
2023/10/11 01:01:17;;;;;;;5.50;4.43;;;12.70;99.90;;;;;;5124411;28;20240;-77
2023/10/11 01:03:43;;;;;;;7.10;5.00;;;12.70;99.90;;;;;;5117880;28;20624;-75
2023/10/11 01:06:12;;;;;;;6.50;5.20;;;12.70;99.90;;;;;;5115943;28;20171;-77
2023/10/11 01:08:40;;;;;;;9.50;5.07;;;12.80;99.90;;;;;;5116268;28;20263;-76
2023/10/11 01:11:13;;;;;;;5.73;4.80;;;13.20;99.90;;;;;;5115518;28;20207;-76
2023/10/11 01:13:40;;;;;;;5.13;4.40;;;12.80;99.90;;;;;;5117712;28;20228;-78
2023/10/11 01:16:14;;;;;;;9.43;4.77;;;12.70;99.90;;;;;;5128296;28;20627;-78
2023/10/11 01:18:40;;;;;;;6.90;4.90;;;12.80;99.90;;;;;;5116699;28;20229;-76
2023/10/11 01:21:07;;;;;;;5.63;4.83;;;12.70;99.90;;;;;;5115966;28;20235;-77
2023/10/11 01:23:34;;;;;;;6.90;4.60;;;12.70;99.90;;;;;;5128746;28;20165;-78
2023/10/11 01:26:07;;;;;;;7.37;4.90;;;12.70;99.90;;;;;;5097364;28;20649;-78
2023/10/11 01:28:44;;;;;;;6.40;4.90;;;12.70;99.90;;;;;;5096616;28;20668;-75
2023/10/11 01:31:11;;;;;;;7.90;4.43;;;12.60;99.90;;;;;;5116039;28;20212;-76
2023/10/11 01:33:41;;;;;;;5.97;5.13;;;12.70;99.90;;;;;;5116420;28;20219;-77
2023/10/11 01:36:21;;;;;;;8.87;5.13;;;12.70;99.90;;;;;;5115049;28;20181;-78
2023/10/11 01:38:47;;;;;;;7.20;4.83;;;12.60;99.90;;;;;;5123258;28;20154;-77
2023/10/11 01:41:22;;;;;;;8.17;5.00;;;12.60;99.90;;;;;;5097663;28;20645;-75
2023/10/11 01:43:49;;;;;;;6.10;4.63;;;12.70;99.90;;;;;;5120425;28;20193;-76
2023/10/11 01:46:24;;;;;;;9.40;5.17;;;12.50;99.90;;;;;;5122608;28;20165;-76
2023/10/11 01:48:51;;;;;;;10.17;5.23;;;12.60;99.90;;;;;;5100230;28;20157;-76
2023/10/11 01:51:23;;;;;;;7.73;5.50;;;12.60;99.90;;;;;;5117996;28;20656;-78
2023/10/11 01:53:49;;;;;;;7.23;5.20;;;12.50;99.90;;;;;;5097483;28;20174;-76
2023/10/11 01:56:15;;;;;;;6.60;5.30;;;12.50;99.90;;;;;;5115144;28;20662;-77
2023/10/11 01:58:42;;;;;;;9.23;5.60;;;12.50;99.90;;;;;;5115967;28;20238;-76
2023/10/11 02:01:28;;;;;;;10.53;5.77;;;12.40;99.90;;;;;;5114338;28;20191;-77
2023/10/11 02:04:00;;;;;;;7.93;5.60;;;12.40;99.90;;;;;;5114625;28;20175;-77
2023/10/11 02:06:31;;;;;;;6.37;5.57;;;12.30;99.90;;;;;;5113797;28;20156;-76
2023/10/11 02:08:58;;;;;;;11.83;5.53;;;12.30;99.90;;;;;;5116515;28;20245;-74
2023/10/11 02:11:25;;;;;;;6.83;5.20;;;12.30;99.90;;;;;;5113755;28;20266;-78
2023/10/11 02:13:52;;;;;;;9.33;6.00;;;12.30;99.90;;;;;;5114406;28;20167;-76
2023/10/11 02:16:18;;;;;;;5.73;5.13;;;12.20;99.90;;;;;;5114005;28;20167;-79
2023/10/11 02:18:51;;;;;;;7.67;6.20;;;12.20;99.90;;;;;;5114051;28;20239;-77
2023/10/11 02:21:17;;;;;;;7.83;5.40;;;12.20;99.90;;;;;;5115172;28;20621;-76
2023/10/11 02:23:44;;;;;;;6.17;5.40;;;12.30;99.90;;;;;;5114452;28;20169;-78
2023/10/11 02:26:12;;;;;;;7.23;5.30;;;12.20;99.90;;;;;;5114855;28;20178;-76
2023/10/11 02:28:39;;;;;;;8.97;5.90;;;12.20;99.90;;;;;;5113830;28;20192;-77
2023/10/11 02:31:06;;;;;;;8.00;5.20;;;12.20;99.90;;;;;;5095306;28;20216;-76
2023/10/11 02:33:33;;;;;;;9.43;6.07;;;12.30;99.90;;;;;;5114086;28;20165;-77
2023/10/11 02:36:09;;;;;;;5.60;5.10;;;12.20;99.90;;;;;;5113827;28;20262;-77
2023/10/11 02:38:47;;;;;;;8.23;5.40;;;12.20;99.90;;;;;;5132441;28;20224;-76
2023/10/11 02:41:20;;;;;;;5.73;4.53;;;12.30;99.90;;;;;;5115878;28;20630;-76
2023/10/11 02:43:49;;;;;;;6.73;4.67;;;12.10;99.90;;;;;;5114322;28;20163;-76
2023/10/11 02:46:23;;;;;;;6.70;5.10;;;12.10;99.90;;;;;;5114481;28;20181;-77
2023/10/11 02:48:52;;;;;;;5.90;4.87;;;12.10;99.90;;;;;;5115451;28;20247;-75
2023/10/11 02:51:24;;;;;;;5.80;5.10;;;12.00;99.90;;;;;;5116226;28;20204;-79
2023/10/11 02:53:54;;;;;;;11.47;5.53;;;12.20;99.90;;;;;;5114070;28;20162;-77
2023/10/11 02:56:20;;;;;;;6.93;4.60;;;11.90;99.90;;;;;;5121664;28;20219;-79
2023/10/11 02:58:49;;;;;;;7.43;4.93;;;12.00;99.90;;;;;;5129533;28;20171;-78
2023/10/11 03:01:16;;;;;;;6.53;4.87;;;11.90;99.90;;;;;;5121614;28;20176;-77
2023/10/11 03:03:43;;;;;;;7.70;5.03;;;11.90;99.90;;;;;;5114759;28;20173;-78
2023/10/11 03:06:09;;;;;;;5.43;4.77;;;12.00;99.90;;;;;;5097767;28;20185;-78
2023/10/11 03:08:40;;;;;;;5.07;4.57;;;12.00;99.90;;;;;;5119417;28;20252;-78
2023/10/11 03:11:08;;;;;;;6.47;4.90;;;11.90;99.90;;;;;;5127421;28;20201;-75
2023/10/11 03:13:43;;;;;;;5.50;5.00;;;11.90;99.90;;;;;;5127068;28;20179;-79
2023/10/11 03:16:13;;;;;;;10.70;6.27;;;11.80;99.90;;;;;;5113305;28;20184;-78
2023/10/11 03:18:40;;;;;;;5.40;4.87;;;11.80;99.90;;;;;;5116898;28;20249;-78
2023/10/11 03:21:17;;;;;;;5.93;5.00;;;11.80;99.90;;;;;;5119709;28;20213;-78
2023/10/11 03:23:45;;;;;;;6.20;4.77;;;11.80;99.90;;;;;;5117049;28;20701;-76
2023/10/11 03:26:48;;;;;;;6.20;5.10;;;11.50;99.90;;;;;;5117532;28;20227;-76
2023/10/11 03:29:04;;;;;;;5.57;5.07;;;11.80;99.90;;;;;;5112896;28;20184;-78
2023/10/11 03:31:31;;;;;;;7.90;4.80;;;11.70;99.90;;;;;;5117264;28;20353;-80
2023/10/11 03:34:10;;;;;;;7.17;5.23;;;11.60;99.90;;;;;;5117135;28;20633;-77
2023/10/11 03:36:43;;;;;;;4.90;4.40;;;11.80;99.90;;;;;;5117025;28;20226;-77
2023/10/11 03:39:18;;;;;;;6.73;4.47;;;11.60;99.90;;;;;;5120916;28;20686;-76
2023/10/11 03:41:47;;;;;;;5.57;5.07;;;11.60;99.90;;;;;;5120693;28;20157;-77
2023/10/11 03:44:17;;;;;;;5.23;4.80;;;11.60;99.90;;;;;;5117761;28;20188;-77
2023/10/11 03:46:56;;;;;;;5.53;4.70;;;11.60;99.90;;;;;;5118880;28;20169;-77
2023/10/11 03:51:50;;;;;;;5.83;5.33;;;11.50;99.90;;;;;;5116882;28;20266;-77
2023/10/11 03:54:23;;;;;;;4.70;4.30;;;11.50;99.90;;;;;;5116676;28;20173;-78
2023/10/11 03:56:53;;;;;;;6.23;5.10;;;11.50;99.90;;;;;;5116325;28;20155;-79
2023/10/11 03:59:26;;;;;;;4.93;4.43;;;11.40;99.90;;;;;;5116688;28;20272;-77
2023/10/11 04:02:00;;;;;;;5.10;4.70;;;11.40;99.90;;;;;;5117159;28;20151;-78
2023/10/11 04:04:26;;;;;;;4.60;4.30;;;11.40;99.90;;;;;;5117803;28;20253;-77
2023/10/11 04:06:57;;;;;;;4.67;4.30;;;11.40;99.90;;;;;;5116222;28;20264;-79
2023/10/11 04:09:37;;;;;;;8.00;5.50;;;10.30;99.90;;;;;;5116113;28;20164;-77
2023/10/11 04:12:10;;;;;;;6.13;4.60;;;11.40;99.90;;;;;;5116450;28;20200;-78
2023/10/11 04:14:42;;;;;;;5.30;4.80;;;11.30;99.90;;;;;;5118977;28;20216;-76
2023/10/11 04:19:48;;;;;;;5.43;4.73;;;11.30;99.90;;;;;;5131967;28;20235;-80
2023/10/11 04:22:23;;;;;;;5.10;4.70;;;11.20;99.90;;;;;;5117556;28;20217;-76
2023/10/11 04:24:53;;;;;;;5.13;4.63;;;11.30;99.90;;;;;;5117069;28;20177;-78
2023/10/11 04:29:50;;;;;;;5.23;4.73;;;11.20;99.90;;;;;;5120100;28;20268;-77
2023/10/11 04:32:40;;;;;;;5.30;4.80;;;11.20;99.90;;;;;;5128410;28;20257;-78
2023/10/11 04:35:21;;;;;;;5.40;4.90;;;11.40;99.90;;;;;;5121616;28;20533;-77
2023/10/11 04:37:54;;;;;;;5.10;4.70;;;10.50;99.90;;;;;;5102200;28;20305;-76
2023/10/11 04:41:18;;;;;;;6.10;5.20;;;11.20;99.90;;;;;;5122143;28;20207;-78
2023/10/11 04:43:26;;;;;;;7.37;5.23;;;11.40;99.90;;;;;;5110673;28;20325;-78
2023/10/11 04:45:59;;;;;;;5.70;5.10;;;11.70;99.90;;;;;;5120365;28;20244;-77
2023/10/11 04:48:30;;;;;;;8.00;5.43;;;11.40;99.90;;;;;;5117353;28;20171;-77
2023/10/11 04:51:42;;;;;;;5.63;5.03;;;11.20;99.90;;;;;;5098365;28;20209;-76
2023/10/11 04:59:09;;;;;;;5.37;4.87;;;11.30;99.90;;;;;;5116530;28;20273;-78
2023/10/11 05:04:26;;;;;;;11.37;5.30;;;11.20;99.90;;;;;;5116078;28;20173;-77
2023/10/11 05:06:53;;;;;;;6.33;5.27;;;11.30;99.90;;;;;;5097019;28;20196;-75
2023/10/11 05:09:38;;;;;;;10.23;5.20;;;11.20;99.90;;;;;;5116392;28;20726;-77
2023/10/11 05:12:09;;;;;;;7.03;5.27;;;11.30;99.90;;;;;;5117801;28;20624;-78
2023/10/11 05:14:40;;;;;;;5.33;4.50;;;11.10;99.90;;;;;;5118711;28;20165;-79
2023/10/11 05:23:11;;;;;;;9.23;5.27;;;11.20;99.90;;;;;;5115672;28;20207;-76
2023/10/11 05:28:07;;;;;;;9.07;4.73;;;11.10;99.90;;;;;;5116007;28;20165;-76
2023/10/11 05:30:34;;;;;;;6.90;4.53;;;11.10;99.90;;;;;;5115970;28;20271;-76
2023/10/11 05:52:17;;;;;;;9.30;5.60;;;11.50;99.90;;;;;;5122928;28;20521;-76
2023/10/11 05:54:45;;;;;;;10.20;4.93;;;11.40;99.90;;;;;;5125886;28;20191;-77
2023/10/11 05:57:13;;;;;;;7.83;5.20;;;11.60;99.90;;;;;;5110089;28;20184;-77
2023/10/11 05:59:42;;;;;;;6.53;4.83;;;11.50;99.90;;;;;;5124108;28;20187;-76
2023/10/11 06:02:13;;;;;;;9.27;5.57;;;11.50;99.90;;;;;;5119209;28;20167;-77
2023/10/11 06:04:42;;;;;;;5.83;5.13;;;11.60;99.90;;;;;;5118809;28;20184;-79
2023/10/11 06:07:18;;;;;;;6.83;5.57;;;11.60;99.90;;;;;;5125121;28;20190;-76
2023/10/11 06:09:45;;;;;;;9.40;5.47;;;11.00;99.90;;;;;;5101480;28;20260;-77
2023/10/11 06:12:26;;;;;;;6.37;5.40;;;11.50;99.90;;;;;;5133220;27;20577;-76
2023/10/11 06:14:57;;;;;;;10.67;5.37;;;11.50;99.90;;;;;;5098162;28;20173;-76
2023/10/11 06:17:32;;;;;;;8.50;5.50;;;11.40;99.90;;;;;;5116057;28;20173;-77
2023/10/11 06:21:01;;;;;;;12.33;5.93;;;11.50;99.90;;;;;;5117580;28;20275;-76
2023/10/11 06:22:49;;;;;;;9.93;5.90;;;11.70;99.90;;;;;;5105805;28;20209;-78
2023/10/11 06:25:22;;;;;;;9.53;5.47;;;11.60;99.90;;;;;;5095639;28;20177;-76
2023/10/11 06:30:23;;;;;;;6.37;5.70;;;11.60;99.90;;;;;;5113952;28;20204;-78
2023/10/11 06:32:52;;;;;;;10.40;5.73;;;11.70;99.90;;;;;;5113557;28;20167;-78
2023/10/11 06:35:27;;;;;;;12.93;6.33;;;11.70;99.90;;;;;;5113750;28;20178;-77
2023/10/11 06:37:54;;;;;;;16.43;6.03;;;11.70;99.90;;;;;;5113912;28;20210;-77
2023/10/11 06:41:36;;;;;;;8.93;5.10;;;11.80;99.90;;;;;;5095215;28;20206;-77
2023/10/11 06:43:11;;;;;;;15.27;5.80;;;11.80;99.90;;;;;;5102237;28;20185;-76
2023/10/11 06:45:36;;;;;;;17.97;6.00;;;11.90;99.90;;;;;;5113251;28;20177;-80
2023/10/11 06:48:09;;;;;;;15.40;6.10;;;12.00;99.90;;;;;;5113562;28;20174;-79
2023/10/11 06:50:38;;;;;;;9.03;5.70;;;11.90;99.90;;;;;;5113508;28;20198;-77
2023/10/11 06:53:08;;;;;;;10.33;5.90;;;12.00;99.90;;;;;;5113200;28;20659;-78
2023/10/11 06:55:47;;;;;;;10.27;5.93;;;12.00;99.90;;;;;;5113204;28;20155;-77
2023/10/11 06:58:19;;;;;;;11.37;6.37;;;12.10;99.90;;;;;;5113253;28;20302;-78
2023/10/11 07:00:48;;;;;;;9.23;5.73;;;12.30;99.90;;;;;;5125769;28;20164;-78
2023/10/11 07:05:56;;;;;;;10.90;6.03;;;12.30;99.90;;;;;;5118642;28;20152;-76
2023/10/11 07:08:31;;;;;;;6.67;5.67;;;12.30;99.90;;;;;;5097322;28;20250;-78
2023/10/11 07:16:27;;;;;;;10.90;7.17;;;12.50;99.90;;;;;;5116519;28;20192;-75
2023/10/11 07:18:57;;;;;;;7.73;6.70;;;12.60;99.90;;;;;;5114141;28;20249;-78
2023/10/11 07:21:36;;;;;;;7.00;6.40;;;12.70;99.90;;;;;;5096516;28;20261;-76
2023/10/11 07:24:55;;;;;;;12.67;6.73;;;12.90;99.90;;;;;;5097585;28;20158;-81
2023/10/11 07:26:56;;;;;;;10.77;7.70;;;12.80;99.90;;;;;;5106982;28;20250;-76
2023/10/11 07:29:22;;;;;;;8.80;6.77;;;12.80;99.90;;;;;;5114622;28;20227;-77
2023/10/11 07:31:51;;;;;;;8.43;7.63;;;13.00;99.90;;;;;;5114267;28;20216;-78
2023/10/11 07:34:20;;;;;;;8.73;7.23;;;13.00;99.90;;;;;;5114569;28;20169;-76
2023/10/11 07:36:49;;;;;;;10.47;6.47;;;13.00;99.90;;;;;;5132415;28;20224;-79
2023/10/11 07:41:43;;;;;;;7.10;6.40;;;13.20;99.90;;;;;;5125462;28;20174;-80
2023/10/11 07:44:11;;;;;;;11.37;6.53;;;13.20;99.90;;;;;;5101157;28;20552;-80
2023/10/11 07:46:43;;;;;;;7.97;6.00;;;13.20;99.90;;;;;;5113309;28;20201;-78
2023/10/11 07:49:15;;;;;;;7.23;6.53;;;13.30;99.90;;;;;;5113083;28;20188;-76
2023/10/11 07:51:42;;;;;;;11.73;6.43;;;13.40;99.90;;;;;;5112363;28;20320;-79
2023/10/11 07:54:19;;;;;;;7.90;6.73;;;13.20;99.90;;;;;;5113074;28;20201;-79
2023/10/11 07:56:49;;;;;;;8.90;6.50;;;13.50;99.90;;;;;;5115577;28;20528;-79
2023/10/11 07:59:15;;;;;;;8.40;6.70;;;13.60;99.90;;;;;;5119787;28;20154;-75
2023/10/11 08:01:44;;;;;;;10.50;7.47;;;13.60;99.90;;;;;;5122793;28;20182;-77
2023/10/11 08:04:18;;;;;;;8.03;7.23;;;13.80;99.90;;;;;;5110408;28;20206;-77
2023/10/11 08:06:44;;;;;;;10.60;8.43;;;13.70;99.90;;;;;;5135850;28;20166;-75
2023/10/11 08:09:18;;;;;;;10.20;7.53;;;13.70;99.90;;;;;;5120650;28;20252;-78
2023/10/11 08:11:46;;;;;;;12.73;7.20;;;13.90;99.90;;;;;;5117542;28;20281;-78
2023/10/11 08:14:15;;;;;;;9.13;6.87;;;13.90;99.90;;;;;;5117067;28;20186;-77
2023/10/11 08:16:47;;;;;;;7.90;7.10;;;13.90;99.90;;;;;;5119286;28;20193;-78
2023/10/11 08:19:13;;;;;;;9.57;6.57;;;14.30;99.90;;;;;;5098829;28;20308;-78
2023/10/11 08:21:39;;;;;;;12.00;7.47;;;14.30;99.90;;;;;;5117299;28;20162;-78
2023/10/11 08:24:15;;;;;;;10.53;7.47;;;14.30;99.90;;;;;;5116193;28;20221;-77
2023/10/11 08:26:42;;;;;;;8.20;6.87;;;14.70;99.90;;;;;;5097233;28;20626;-78
2023/10/11 08:29:29;;;;;;;11.33;7.17;;;14.60;99.90;;;;;;5134607;28;20566;-76
2023/10/11 08:31:59;;;;;;;12.23;6.83;;;14.60;99.90;;;;;;5130768;28;20173;-79
2023/10/11 08:34:25;;;;;;;12.33;7.67;;;14.70;99.90;;;;;;5117532;28;20174;-79
2023/10/11 08:36:55;;;;;;;9.90;7.70;;;15.00;99.90;;;;;;5117663;28;20214;-80
2023/10/11 08:42:30;;;;;;;10.87;7.27;;;15.00;99.90;;;;;;5072950;28;20220;-76
2023/10/11 08:45:00;;;;;;;10.00;6.93;;;15.00;99.90;;;;;;5073624;28;20187;-77
2023/10/11 08:47:29;;;;;;;8.93;6.80;;;15.10;99.90;;;;;;5072505;28;20197;-78
2023/10/11 08:49:55;;;;;;;12.60;6.60;;;15.20;99.90;;;;;;5072477;28;20253;-79
2023/10/11 08:52:28;;;;;;;10.97;6.57;;;15.30;99.90;;;;;;5072425;28;20190;-77
2023/10/11 08:54:53;;;;;;;8.23;6.43;;;15.20;99.90;;;;;;5073327;28;20173;-78
2023/10/11 08:57:23;;;;;;;10.07;6.77;;;15.40;99.90;;;;;;5073639;28;20538;-76
2023/10/11 08:59:50;;;;;;;11.43;6.87;;;15.40;99.90;;;;;;5077525;28;20175;-79
2023/10/11 09:02:17;;;;;;;9.37;6.57;;;15.40;99.90;;;;;;5072997;28;20180;-79
2023/10/11 09:05:28;;;;;;;12.27;7.07;;;15.60;99.90;;;;;;5072618;28;20659;-78
2023/10/11 09:07:54;;;;;;;16.70;7.20;;;15.50;99.90;;;;;;5072986;28;20182;-76
2023/10/11 09:10:27;;;;;;;8.43;6.57;;;15.70;99.90;;;;;;5073543;28;20207;-80
2023/10/11 09:12:57;;;;;;;9.77;7.10;;;15.80;99.90;;;;;;5078595;28;20187;-75
2023/10/11 09:15:44;;;;;;;9.17;6.30;;;16.00;99.90;;;;;;5082610;28;20177;-76
2023/10/11 09:18:16;;;;;;;13.13;6.97;;;16.10;99.90;;;;;;5117092;28;20186;-76
2023/10/11 09:20:55;;;;;;;13.77;7.47;;;16.10;99.90;;;;;;5132266;28;20209;-76
2023/10/11 09:23:37;;;;;;;13.37;6.43;;;16.30;99.90;;;;;;5117953;28;20245;-78
2023/10/11 09:26:05;;;;;;;9.37;6.30;;;16.30;99.90;;;;;;5116504;28;20176;-78
2023/10/11 09:28:33;;;;;;;12.00;7.00;;;16.30;99.90;;;;;;5115508;28;20173;-78
2023/10/11 09:31:20;;;;;;;10.90;6.93;;;16.40;99.90;;;;;;5114855;28;20219;-78
2023/10/11 09:34:07;;;;;;;11.00;6.93;;;16.40;99.90;;;;;;5115535;28;20520;-77
2023/10/11 09:36:33;;;;;;;8.87;6.40;;;16.30;99.90;;;;;;5115885;28;20158;-78
2023/10/11 09:39:02;;;;;;;9.07;6.43;;;16.40;99.90;;;;;;5097330;28;20260;-78
2023/10/11 09:41:40;;;;;;;8.93;5.73;;;16.40;99.90;;;;;;5115280;28;20202;-76
2023/10/11 09:44:10;;;;;;;10.00;6.00;;;16.40;99.90;;;;;;5122718;28;20158;-79
2023/10/11 09:46:36;;;;;;;9.27;6.53;;;16.50;99.90;;;;;;5119882;28;20158;-77
2023/10/11 09:49:12;;;;;;;9.70;6.00;;;16.50;99.90;;;;;;5115482;28;20170;-77
2023/10/11 09:51:42;;;;;;;11.03;6.47;;;16.80;99.90;;;;;;5125051;28;20204;-77
2023/10/11 09:54:15;;;;;;;9.63;5.77;;;16.80;99.90;;;;;;5119622;28;20167;-79
2023/10/11 09:56:53;;;;;;;12.30;5.30;;;16.70;99.90;;;;;;5096270;28;20181;-78
2023/10/11 09:59:50;;;;;;;10.33;5.57;;;16.90;99.90;;;;;;5114231;28;20763;-77
2023/10/11 10:02:15;;;;;;;9.73;5.80;;;16.80;99.90;;;;;;5114299;28;20529;-80
2023/10/11 10:04:50;;;;;;;11.23;6.03;;;16.90;99.90;;;;;;5114422;28;20174;-79
2023/10/11 10:09:52;;;;;;;9.53;5.60;;;17.00;99.90;;;;;;5114869;28;20196;-77
2023/10/11 10:12:20;;;;;;;13.20;6.27;;;17.00;99.90;;;;;;5113796;28;20220;-79
2023/10/11 10:15:02;;;;;;;10.30;6.40;;;17.20;99.90;;;;;;5115173;28;20202;-78
2023/10/11 10:17:28;;;;;;;9.00;5.83;;;17.20;99.90;;;;;;5096004;28;20548;-80
2023/10/11 10:20:00;;;;;;;12.20;6.47;;;17.10;99.90;;;;;;5113163;28;20375;-77
2023/10/11 10:22:31;;;;;;;13.17;6.00;;;17.40;99.90;;;;;;5113954;28;20562;-78
2023/10/11 10:25:18;;;;;;;14.00;6.90;;;17.30;99.90;;;;;;5114099;28;20170;-78
2023/10/11 10:27:52;;;;;;;6.30;5.63;;;17.40;99.90;;;;;;5095299;28;20584;-79
2023/10/11 10:30:21;;;;;;;8.10;6.30;;;17.60;99.90;;;;;;5116453;28;20211;-77
2023/10/11 10:33:18;;;;;;;8.37;5.23;;;17.70;99.90;;;;;;5095364;28;20523;-78
2023/10/11 10:35:45;;;;;;;7.43;5.17;;;17.70;99.90;;;;;;5114945;28;20166;-76
2023/10/11 10:38:10;;;;;;;7.63;5.57;;;17.70;99.90;;;;;;5116951;28;20205;-79
2023/10/11 10:40:45;;;;;;;9.53;5.53;;;17.70;99.90;;;;;;5113658;28;20580;-79
2023/10/11 10:43:23;;;;;;;9.73;5.70;;;17.90;99.90;;;;;;5113647;28;20186;-78
2023/10/11 10:45:53;;;;;;;6.53;4.63;;;17.90;99.90;;;;;;5113848;28;20178;-76
2023/10/11 10:48:30;;;;;;;8.23;5.33;;;17.90;99.90;;;;;;5113249;28;20158;-76
2023/10/11 10:51:07;;;;;;;9.27;4.60;;;17.90;99.90;;;;;;5117965;28;20292;-78
2023/10/11 10:53:53;;;;;;;5.63;4.60;;;18.00;99.90;;;;;;5113386;28;20514;-77
2023/10/11 10:56:25;;;;;;;10.53;6.53;;;18.10;99.90;;;;;;5113563;28;20154;-77
2023/10/11 10:59:14;;;;;;;16.30;8.60;;;18.30;99.90;;;;;;5133081;28;20158;-75
2023/10/11 11:01:46;;;;;;;9.47;6.17;;;18.20;99.90;;;;;;5098975;28;20728;-78
2023/10/11 11:04:13;;;;;;;6.33;5.13;;;18.30;99.90;;;;;;5122942;28;20173;-76
2023/10/11 11:06:47;;;;;;;7.60;5.23;;;18.30;99.90;;;;;;5133527;28;20158;-77
2023/10/11 11:09:18;;;;;;;11.40;3.97;;;18.30;99.90;;;;;;5132714;28;20591;-76
2023/10/11 11:11:45;;;;;;;14.90;10.33;;;18.30;99.90;;;;;;5121367;28;20683;-76
2023/10/11 11:14:13;;;;;;;6.90;5.10;;;18.40;99.90;;;;;;5129351;28;20166;-77
2023/10/11 11:16:40;;;;;;;5.60;3.87;;;18.50;99.90;;;;;;5118035;28;20181;-78
2023/10/11 11:19:16;;;;;;;7.93;4.53;;;18.50;99.90;;;;;;5116325;28;20312;-77
2023/10/11 11:21:46;;;;;;;6.70;4.57;;;18.70;99.90;;;;;;5115024;28;20516;-80
2023/10/11 11:24:27;;;;;;;21.27;8.63;;;18.60;99.90;;;;;;5113949;28;20187;-76
2023/10/11 11:26:56;;;;;;;14.43;7.53;;;18.70;99.90;;;;;;5111188;28;20173;-78
2023/10/11 11:29:32;;;;;;;8.33;4.80;;;18.80;99.90;;;;;;5114443;28;20185;-77
2023/10/11 11:32:23;;;;;;;8.13;5.43;;;18.80;99.90;;;;;;5113465;28;20187;-77
2023/10/11 11:35:09;;;;;;;9.57;4.27;;;18.70;99.90;;;;;;5112493;28;20197;-79
2023/10/11 11:37:39;;;;;;;7.43;4.10;;;18.80;99.90;;;;;;5112357;28;20166;-79
2023/10/11 11:40:19;;;;;;;7.40;4.43;;;18.90;99.90;;;;;;5116389;28;20217;-79
2023/10/11 11:42:48;;;;;;;5.70;3.83;;;18.90;99.90;;;;;;5117093;28;20191;-77
2023/10/11 11:45:15;;;;;;;7.57;4.20;;;19.10;99.90;;;;;;5117111;28;20178;-78
2023/10/11 11:47:53;;;;;;;8.53;4.73;;;19.20;99.90;;;;;;5116560;28;20162;-78
2023/10/11 11:50:20;;;;;;;7.37;4.77;;;19.40;99.90;;;;;;5116516;28;20197;-78
2023/10/11 11:52:46;;;;;;;7.63;4.73;;;19.40;99.90;;;;;;5116467;28;20173;-77
2023/10/11 11:55:11;;;;;;;5.53;4.33;;;19.40;99.90;;;;;;5116734;28;20169;-76
2023/10/11 11:57:37;;;;;;;7.50;4.27;;;19.40;99.90;;;;;;5116546;28;20189;-76
2023/10/11 12:00:28;;;;;;;5.83;4.13;;;19.50;99.90;;;;;;5117073;28;20178;-77
2023/10/11 12:03:04;;;;;;;7.37;4.70;;;19.50;99.90;;;;;;5116337;28;20194;-78
2023/10/11 12:05:43;;;;;;;6.80;4.07;;;19.60;99.90;;;;;;5116412;28;20154;-77
2023/10/11 12:08:18;;;;;;;7.70;3.90;;;19.70;99.90;;;;;;5116341;28;20620;-78
2023/10/11 12:10:47;;;;;;;4.17;3.73;;;19.70;99.90;;;;;;5116315;28;20250;-76
2023/10/11 12:13:23;;;;;;;8.37;4.30;;;19.90;99.90;;;;;;5098561;28;20181;-76
2023/10/11 12:15:54;;;;;;;5.87;4.23;;;20.00;99.90;;;;;;5120229;28;20207;-77
2023/10/11 12:18:32;;;;;;;11.13;4.00;;;19.90;99.90;;;;;;5116770;28;20214;-78
2023/10/11 12:20:59;;;;;;;6.40;3.90;;;19.90;99.90;;;;;;5116960;28;20184;-78
2023/10/11 12:23:25;;;;;;;11.37;3.87;;;19.90;99.90;;;;;;5116842;28;20177;-78
2023/10/11 12:25:50;;;;;;;7.17;3.90;;;20.00;99.90;;;;;;5105292;28;20185;-78
2023/10/11 12:28:18;;;;;;;8.70;4.60;;;20.10;99.90;;;;;;5119412;28;20252;-78
2023/10/11 12:30:45;;;;;;;4.93;3.90;;;20.10;99.90;;;;;;5116728;28;20236;-77
2023/10/11 12:33:11;;;;;;;7.50;4.20;;;20.30;99.90;;;;;;5116616;28;20166;-78
2023/10/11 12:35:40;;;;;;;6.13;4.50;;;20.50;99.90;;;;;;5102072;28;20184;-77
2023/10/11 12:38:13;;;;;;;8.33;4.67;;;20.40;99.90;;;;;;5117398;28;20250;-76
2023/10/11 12:40:44;;;;;;;6.83;4.63;;;20.40;99.90;;;;;;5135844;28;20168;-77
2023/10/11 12:43:10;;;;;;;6.90;4.43;;;20.30;99.90;;;;;;5118064;28;20162;-76
2023/10/11 12:45:44;;;;;;;8.17;4.77;;;20.50;99.90;;;;;;5115905;28;20205;-79
2023/10/11 12:48:10;;;;;;;5.43;4.03;;;20.30;99.90;;;;;;5116308;28;20203;-77
2023/10/11 12:50:37;;;;;;;5.93;3.90;;;20.30;99.90;;;;;;5122140;28;20202;-77
2023/10/11 12:53:13;;;;;;;5.03;4.13;;;20.30;99.90;;;;;;5119020;28;20180;-77
2023/10/11 12:55:45;;;;;;;8.70;4.70;;;20.30;99.90;;;;;;5097152;28;20181;-78
2023/10/11 12:58:14;;;;;;;7.17;4.10;;;20.40;99.90;;;;;;5115538;28;20165;-77
2023/10/11 13:00:48;;;;;;;5.57;3.93;;;20.30;99.90;;;;;;5115508;28;20178;-76
2023/10/11 13:03:29;;;;;;;7.40;4.07;;;20.20;99.90;;;;;;5115583;28;20692;-77
2023/10/11 13:05:55;;;;;;;5.23;4.10;;;20.20;99.90;;;;;;5116924;28;20563;-78
2023/10/11 13:08:26;;;;;;;5.93;4.30;;;20.20;99.90;;;;;;5126885;28;20181;-77
2023/10/11 13:10:53;;;;;;;7.70;4.57;;;20.30;99.90;;;;;;5128363;28;20231;-77
2023/10/11 13:13:23;;;;;;;5.10;4.50;;;20.20;99.90;;;;;;5115342;28;20166;-78
2023/10/11 13:15:59;;;;;;;6.17;4.30;;;20.20;99.90;;;;;;5115365;28;20184;-79
2023/10/11 13:18:37;;;;;;;4.77;4.10;;;20.20;99.90;;;;;;5116256;28;20707;-77
2023/10/11 13:21:12;;;;;;;6.27;4.50;;;20.50;99.90;;;;;;5115656;28;20173;-76
2023/10/11 13:23:40;;;;;;;8.30;4.47;;;20.20;99.90;;;;;;5116709;28;20185;-76
2023/10/11 13:26:09;;;;;;;7.40;4.20;;;20.40;99.90;;;;;;5115206;28;20176;-77
2023/10/11 13:28:36;;;;;;;7.93;4.20;;;20.50;99.90;;;;;;5114662;28;20170;-78
2023/10/11 13:31:03;;;;;;;10.97;5.00;;;20.30;99.90;;;;;;5115001;28;20194;-77
2023/10/11 13:33:30;;;;;;;7.63;5.90;;;20.30;99.90;;;;;;5117572;28;20176;-77
2023/10/11 13:36:00;;;;;;;10.80;4.80;;;20.70;99.90;;;;;;5114371;28;20634;-75
2023/10/11 13:38:30;;;;;;;6.10;4.27;;;20.30;99.90;;;;;;5114666;28;20188;-76
2023/10/11 13:40:56;;;;;;;8.00;5.20;;;20.40;99.90;;;;;;5114755;28;20154;-79
2023/10/11 13:43:22;;;;;;;5.70;4.37;;;20.40;99.90;;;;;;5114578;28;20180;-78
2023/10/11 13:45:56;;;;;;;6.20;4.10;;;20.30;99.90;;;;;;5096717;28;20462;-78
2023/10/11 13:48:39;;;;;;;6.20;4.50;;;20.40;99.90;;;;;;5114532;28;20213;-78
2023/10/11 13:51:18;;;;;;;7.57;4.40;;;20.50;99.90;;;;;;5126007;28;20200;-76
2023/10/11 13:53:50;;;;;;;7.57;4.40;;;20.70;99.90;;;;;;5123774;28;20154;-75
2023/10/11 13:56:31;;;;;;;6.90;4.47;;;20.50;99.90;;;;;;5128974;28;20182;-75
2023/10/11 13:58:57;;;;;;;6.50;4.67;;;20.40;99.90;;;;;;5125203;28;20224;-77
2023/10/11 14:04:13;;;;;;;7.37;4.20;;;20.50;99.90;;;;;;5121476;28;20508;-79
2023/10/11 14:06:43;;;;;;;7.87;5.23;;;20.40;99.90;;;;;;5097255;28;20177;-78
2023/10/11 14:09:16;;;;;;;12.40;5.43;;;20.40;99.90;;;;;;5096204;28;20188;-78
2023/10/11 14:11:46;;;;;;;7.90;4.20;;;20.40;99.90;;;;;;5114127;28;20205;-77
2023/10/11 14:14:14;;;;;;;5.37;4.50;;;20.50;99.90;;;;;;5114095;28;20165;-77